sensor_id;sensor_type;location;lat;lon;timestamp;P1;durP1;ratioP1;P2;durP2;ratioP2
54899;SDS011;40801;41.924;25.562;2023-05-01T00:00:23;8.00;;;7.40;;
54899;SDS011;40801;41.924;25.562;2023-05-01T00:02:48;7.45;;;6.90;;
54899;SDS011;40801;41.924;25.562;2023-05-01T00:05:14;7.28;;;6.72;;
54899;SDS011;40801;41.924;25.562;2023-05-01T00:07:39;7.82;;;7.22;;
54899;SDS011;40801;41.924;25.562;2023-05-01T00:10:05;8.05;;;7.32;;
54899;SDS011;40801;41.924;25.562;2023-05-01T00:12:31;7.47;;;6.95;;
54899;SDS011;40801;41.924;25.562;2023-05-01T00:14:56;8.00;;;7.40;;
54899;SDS011;40801;41.924;25.562;2023-05-01T00:17:22;6.80;;;6.30;;
54899;SDS011;40801;41.924;25.562;2023-05-01T00:19:54;7.65;;;7.03;;
54899;SDS011;40801;41.924;25.562;2023-05-01T00:22:19;7.97;;;6.40;;
54899;SDS011;40801;41.924;25.562;2023-05-01T00:24:45;7.95;;;7.25;;
54899;SDS011;40801;41.924;25.562;2023-05-01T00:27:12;9.68;;;7.40;;
54899;SDS011;40801;41.924;25.562;2023-05-01T00:29:38;7.07;;;6.43;;
54899;SDS011;40801;41.924;25.562;2023-05-01T00:32:04;7.63;;;7.05;;
54899;SDS011;40801;41.924;25.562;2023-05-01T00:34:29;7.85;;;7.25;;
54899;SDS011;40801;41.924;25.562;2023-05-01T00:36:55;7.70;;;7.10;;
54899;SDS011;40801;41.924;25.562;2023-05-01T00:39:20;6.93;;;6.32;;
54899;SDS011;40801;41.924;25.562;2023-05-01T00:41:46;8.30;;;7.60;;
54899;SDS011;40801;41.924;25.562;2023-05-01T00:44:11;7.50;;;6.90;;
54899;SDS011;40801;41.924;25.562;2023-05-01T00:46:37;7.45;;;6.90;;
54899;SDS011;40801;41.924;25.562;2023-05-01T00:49:03;7.43;;;6.93;;
54899;SDS011;40801;41.924;25.562;2023-05-01T00:51:28;7.70;;;7.10;;
54899;SDS011;40801;41.924;25.562;2023-05-01T00:53:55;8.88;;;8.10;;
54899;SDS011;40801;41.924;25.562;2023-05-01T00:56:23;9.00;;;8.30;;
54899;SDS011;40801;41.924;25.562;2023-05-01T00:58:50;9.32;;;8.57;;
54899;SDS011;40801;41.924;25.562;2023-05-01T01:01:21;9.02;;;8.30;;
54899;SDS011;40801;41.924;25.562;2023-05-01T01:03:47;8.43;;;7.78;;
54899;SDS011;40801;41.924;25.562;2023-05-01T01:06:16;8.25;;;7.65;;
54899;SDS011;40801;41.924;25.562;2023-05-01T01:11:50;8.93;;;8.27;;
54899;SDS011;40801;41.924;25.562;2023-05-01T01:14:32;8.52;;;7.80;;
54899;SDS011;40801;41.924;25.562;2023-05-01T01:20:39;9.27;;;8.57;;
54899;SDS011;40801;41.924;25.562;2023-05-01T01:23:33;9.43;;;8.63;;
54899;SDS011;40801;41.924;25.562;2023-05-01T01:29:33;9.10;;;8.40;;
54899;SDS011;40801;41.924;25.562;2023-05-01T01:34:57;8.07;;;7.45;;
54899;SDS011;40801;41.924;25.562;2023-05-01T01:37:39;8.60;;;7.90;;
54899;SDS011;40801;41.924;25.562;2023-05-01T01:42:38;7.43;;;6.90;;
54899;SDS011;40801;41.924;25.562;2023-05-01T01:45:08;7.70;;;7.10;;
54899;SDS011;40801;41.924;25.562;2023-05-01T01:47:38;8.68;;;7.97;;
54899;SDS011;40801;41.924;25.562;2023-05-01T01:50:06;8.38;;;7.60;;
54899;SDS011;40801;41.924;25.562;2023-05-01T01:52:34;7.80;;;7.30;;
54899;SDS011;40801;41.924;25.562;2023-05-01T01:55:04;9.27;;;8.65;;
54899;SDS011;40801;41.924;25.562;2023-05-01T01:57:32;9.25;;;8.57;;
54899;SDS011;40801;41.924;25.562;2023-05-01T02:00:00;8.38;;;7.68;;
54899;SDS011;40801;41.924;25.562;2023-05-01T02:02:26;9.13;;;8.45;;
54899;SDS011;40801;41.924;25.562;2023-05-01T02:04:52;9.63;;;8.80;;
54899;SDS011;40801;41.924;25.562;2023-05-01T02:07:21;9.95;;;8.95;;
54899;SDS011;40801;41.924;25.562;2023-05-01T02:09:47;10.68;;;9.75;;
54899;SDS011;40801;41.924;25.562;2023-05-01T02:12:15;10.18;;;9.27;;
54899;SDS011;40801;41.924;25.562;2023-05-01T02:14:43;10.38;;;9.50;;
54899;SDS011;40801;41.924;25.562;2023-05-01T02:17:10;10.80;;;9.90;;
54899;SDS011;40801;41.924;25.562;2023-05-01T02:19:37;11.50;;;10.18;;
54899;SDS011;40801;41.924;25.562;2023-05-01T02:22:06;12.00;;;10.90;;
54899;SDS011;40801;41.924;25.562;2023-05-01T02:24:34;11.35;;;10.25;;
54899;SDS011;40801;41.924;25.562;2023-05-01T02:27:03;10.98;;;10.00;;
54899;SDS011;40801;41.924;25.562;2023-05-01T02:29:33;11.45;;;10.50;;
54899;SDS011;40801;41.924;25.562;2023-05-01T02:31:59;11.13;;;10.13;;
54899;SDS011;40801;41.924;25.562;2023-05-01T02:34:25;11.07;;;10.10;;
54899;SDS011;40801;41.924;25.562;2023-05-01T02:36:51;9.40;;;8.60;;
54899;SDS011;40801;41.924;25.562;2023-05-01T02:39:16;11.20;;;10.13;;
54899;SDS011;40801;41.924;25.562;2023-05-01T02:41:41;9.55;;;8.77;;
54899;SDS011;40801;41.924;25.562;2023-05-01T02:44:09;9.93;;;9.13;;
54899;SDS011;40801;41.924;25.562;2023-05-01T02:46:36;10.60;;;9.70;;
54899;SDS011;40801;41.924;25.562;2023-05-01T02:49:07;10.48;;;9.60;;
54899;SDS011;40801;41.924;25.562;2023-05-01T02:51:33;10.98;;;10.07;;
54899;SDS011;40801;41.924;25.562;2023-05-01T02:54:00;11.75;;;10.65;;
54899;SDS011;40801;41.924;25.562;2023-05-01T02:56:27;10.70;;;9.70;;
54899;SDS011;40801;41.924;25.562;2023-05-01T02:58:53;12.35;;;9.07;;
54899;SDS011;40801;41.924;25.562;2023-05-01T03:01:19;9.32;;;8.35;;
54899;SDS011;40801;41.924;25.562;2023-05-01T03:03:44;10.65;;;9.70;;
54899;SDS011;40801;41.924;25.562;2023-05-01T03:06:10;15.57;;;13.75;;
54899;SDS011;40801;41.924;25.562;2023-05-01T03:08:35;12.35;;;11.25;;
54899;SDS011;40801;41.924;25.562;2023-05-01T03:11:07;11.40;;;10.40;;
54899;SDS011;40801;41.924;25.562;2023-05-01T03:13:33;10.75;;;9.82;;
54899;SDS011;40801;41.924;25.562;2023-05-01T03:15:59;11.85;;;10.75;;
54899;SDS011;40801;41.924;25.562;2023-05-01T03:18:25;11.07;;;10.02;;
54899;SDS011;40801;41.924;25.562;2023-05-01T03:20:51;11.43;;;10.35;;
54899;SDS011;40801;41.924;25.562;2023-05-01T03:23:21;13.27;;;12.10;;
54899;SDS011;40801;41.924;25.562;2023-05-01T03:25:47;11.13;;;10.05;;
54899;SDS011;40801;41.924;25.562;2023-05-01T03:28:13;10.07;;;9.38;;
54899;SDS011;40801;41.924;25.562;2023-05-01T03:30:38;10.25;;;9.27;;
54899;SDS011;40801;41.924;25.562;2023-05-01T03:33:03;11.00;;;10.10;;
54899;SDS011;40801;41.924;25.562;2023-05-01T03:35:29;11.73;;;10.73;;
54899;SDS011;40801;41.924;25.562;2023-05-01T03:37:54;12.10;;;11.10;;
54899;SDS011;40801;41.924;25.562;2023-05-01T03:40:20;11.27;;;10.27;;
54899;SDS011;40801;41.924;25.562;2023-05-01T03:42:45;13.88;;;11.18;;
54899;SDS011;40801;41.924;25.562;2023-05-01T03:45:11;12.05;;;11.05;;
54899;SDS011;40801;41.924;25.562;2023-05-01T03:47:36;12.18;;;11.18;;
54899;SDS011;40801;41.924;25.562;2023-05-01T03:50:02;12.35;;;11.25;;
54899;SDS011;40801;41.924;25.562;2023-05-01T03:52:28;13.13;;;11.82;;
54899;SDS011;40801;41.924;25.562;2023-05-01T03:54:53;12.80;;;11.57;;
54899;SDS011;40801;41.924;25.562;2023-05-01T03:57:18;12.40;;;11.05;;
54899;SDS011;40801;41.924;25.562;2023-05-01T03:59:47;16.67;;;15.02;;
54899;SDS011;40801;41.924;25.562;2023-05-01T04:02:13;14.85;;;13.25;;
54899;SDS011;40801;41.924;25.562;2023-05-01T04:04:38;12.02;;;10.82;;
54899;SDS011;40801;41.924;25.562;2023-05-01T04:07:04;15.15;;;13.00;;
54899;SDS011;40801;41.924;25.562;2023-05-01T04:09:30;13.05;;;11.57;;
54899;SDS011;40801;41.924;25.562;2023-05-01T04:11:55;12.13;;;11.00;;
54899;SDS011;40801;41.924;25.562;2023-05-01T04:14:20;13.95;;;12.55;;
54899;SDS011;40801;41.924;25.562;2023-05-01T04:16:46;16.80;;;15.20;;
54899;SDS011;40801;41.924;25.562;2023-05-01T04:19:12;12.05;;;10.88;;
54899;SDS011;40801;41.924;25.562;2023-05-01T04:21:37;11.70;;;10.80;;
54899;SDS011;40801;41.924;25.562;2023-05-01T04:24:03;11.75;;;10.63;;
54899;SDS011;40801;41.924;25.562;2023-05-01T04:26:29;13.02;;;11.77;;
54899;SDS011;40801;41.924;25.562;2023-05-01T04:28:54;10.27;;;9.52;;
54899;SDS011;40801;41.924;25.562;2023-05-01T04:31:19;8.80;;;8.05;;
54899;SDS011;40801;41.924;25.562;2023-05-01T04:33:45;10.48;;;9.50;;
54899;SDS011;40801;41.924;25.562;2023-05-01T04:36:10;10.10;;;9.30;;
54899;SDS011;40801;41.924;25.562;2023-05-01T04:38:36;9.95;;;9.05;;
54899;SDS011;40801;41.924;25.562;2023-05-01T04:41:03;9.98;;;8.98;;
54899;SDS011;40801;41.924;25.562;2023-05-01T04:43:29;9.18;;;8.43;;
54899;SDS011;40801;41.924;25.562;2023-05-01T04:45:54;10.38;;;8.65;;
54899;SDS011;40801;41.924;25.562;2023-05-01T04:48:20;8.35;;;7.53;;
54899;SDS011;40801;41.924;25.562;2023-05-01T04:50:45;9.38;;;8.68;;
54899;SDS011;40801;41.924;25.562;2023-05-01T04:53:10;9.30;;;8.60;;
54899;SDS011;40801;41.924;25.562;2023-05-01T04:55:36;9.77;;;8.98;;
54899;SDS011;40801;41.924;25.562;2023-05-01T04:58:01;8.55;;;7.93;;
54899;SDS011;40801;41.924;25.562;2023-05-01T05:00:28;8.90;;;8.10;;
54899;SDS011;40801;41.924;25.562;2023-05-01T05:02:54;8.57;;;7.78;;
54899;SDS011;40801;41.924;25.562;2023-05-01T05:05:20;7.90;;;7.30;;
54899;SDS011;40801;41.924;25.562;2023-05-01T05:07:45;8.82;;;8.07;;
54899;SDS011;40801;41.924;25.562;2023-05-01T05:10:11;7.68;;;7.07;;
54899;SDS011;40801;41.924;25.562;2023-05-01T05:12:37;9.20;;;8.30;;
54899;SDS011;40801;41.924;25.562;2023-05-01T05:15:03;6.90;;;6.35;;
54899;SDS011;40801;41.924;25.562;2023-05-01T05:17:29;7.18;;;6.68;;
54899;SDS011;40801;41.924;25.562;2023-05-01T05:19:54;7.65;;;7.07;;
54899;SDS011;40801;41.924;25.562;2023-05-01T05:22:19;7.50;;;7.00;;
54899;SDS011;40801;41.924;25.562;2023-05-01T05:24:45;7.85;;;7.20;;
54899;SDS011;40801;41.924;25.562;2023-05-01T05:27:11;8.65;;;7.88;;
54899;SDS011;40801;41.924;25.562;2023-05-01T05:29:36;7.88;;;7.20;;
54899;SDS011;40801;41.924;25.562;2023-05-01T05:32:01;7.35;;;6.75;;
54899;SDS011;40801;41.924;25.562;2023-05-01T05:34:27;7.75;;;7.05;;
54899;SDS011;40801;41.924;25.562;2023-05-01T05:36:53;7.32;;;6.63;;
54899;SDS011;40801;41.924;25.562;2023-05-01T05:39:20;7.80;;;7.18;;
54899;SDS011;40801;41.924;25.562;2023-05-01T05:41:47;7.43;;;6.93;;
54899;SDS011;40801;41.924;25.562;2023-05-01T05:44:13;8.20;;;7.60;;
54899;SDS011;40801;41.924;25.562;2023-05-01T05:46:39;9.27;;;7.65;;
54899;SDS011;40801;41.924;25.562;2023-05-01T05:49:04;9.40;;;8.52;;
54899;SDS011;40801;41.924;25.562;2023-05-01T05:51:30;7.60;;;6.90;;
54899;SDS011;40801;41.924;25.562;2023-05-01T05:53:55;8.30;;;7.60;;
54899;SDS011;40801;41.924;25.562;2023-05-01T05:56:21;7.80;;;7.13;;
54899;SDS011;40801;41.924;25.562;2023-05-01T05:58:48;6.95;;;6.45;;
54899;SDS011;40801;41.924;25.562;2023-05-01T06:01:13;7.93;;;7.43;;
54899;SDS011;40801;41.924;25.562;2023-05-01T06:03:39;7.47;;;6.88;;
54899;SDS011;40801;41.924;25.562;2023-05-01T06:06:05;8.38;;;7.68;;
54899;SDS011;40801;41.924;25.562;2023-05-01T06:08:30;7.20;;;6.60;;
54899;SDS011;40801;41.924;25.562;2023-05-01T06:10:56;6.57;;;6.15;;
54899;SDS011;40801;41.924;25.562;2023-05-01T06:13:23;7.25;;;6.75;;
54899;SDS011;40801;41.924;25.562;2023-05-01T06:15:48;6.47;;;6.07;;
54899;SDS011;40801;41.924;25.562;2023-05-01T06:18:14;6.47;;;5.97;;
54899;SDS011;40801;41.924;25.562;2023-05-01T06:20:39;6.32;;;5.43;;
54899;SDS011;40801;41.924;25.562;2023-05-01T06:23:05;6.80;;;6.05;;
54899;SDS011;40801;41.924;25.562;2023-05-01T06:25:32;5.85;;;5.45;;
54899;SDS011;40801;41.924;25.562;2023-05-01T06:27:57;5.88;;;5.38;;
54899;SDS011;40801;41.924;25.562;2023-05-01T06:30:23;6.10;;;5.70;;
54899;SDS011;40801;41.924;25.562;2023-05-01T06:32:48;7.00;;;6.10;;
54899;SDS011;40801;41.924;25.562;2023-05-01T06:35:14;7.53;;;6.55;;
54899;SDS011;40801;41.924;25.562;2023-05-01T06:37:40;5.88;;;5.50;;
54899;SDS011;40801;41.924;25.562;2023-05-01T06:40:06;6.72;;;6.20;;
54899;SDS011;40801;41.924;25.562;2023-05-01T06:42:34;6.65;;;6.13;;
54899;SDS011;40801;41.924;25.562;2023-05-01T06:45:00;6.75;;;6.03;;
54899;SDS011;40801;41.924;25.562;2023-05-01T06:47:25;7.07;;;6.43;;
54899;SDS011;40801;41.924;25.562;2023-05-01T06:49:50;21.55;;;19.35;;
54899;SDS011;40801;41.924;25.562;2023-05-01T06:52:16;6.38;;;5.68;;
54899;SDS011;40801;41.924;25.562;2023-05-01T06:54:41;6.30;;;5.80;;
54899;SDS011;40801;41.924;25.562;2023-05-01T06:57:07;9.55;;;8.48;;
54899;SDS011;40801;41.924;25.562;2023-05-01T06:59:32;5.40;;;4.90;;
54899;SDS011;40801;41.924;25.562;2023-05-01T07:01:58;5.82;;;5.32;;
54899;SDS011;40801;41.924;25.562;2023-05-01T07:04:23;7.70;;;7.05;;
54899;SDS011;40801;41.924;25.562;2023-05-01T07:06:48;4.55;;;4.15;;
54899;SDS011;40801;41.924;25.562;2023-05-01T07:09:14;4.75;;;4.45;;
54899;SDS011;40801;41.924;25.562;2023-05-01T07:11:39;7.07;;;6.50;;
54899;SDS011;40801;41.924;25.562;2023-05-01T07:14:06;24.35;;;21.75;;
54899;SDS011;40801;41.924;25.562;2023-05-01T07:16:32;4.07;;;3.78;;
54899;SDS011;40801;41.924;25.562;2023-05-01T07:18:57;4.43;;;4.03;;
54899;SDS011;40801;41.924;25.562;2023-05-01T07:21:23;4.70;;;4.40;;
54899;SDS011;40801;41.924;25.562;2023-05-01T07:23:48;5.00;;;4.60;;
54899;SDS011;40801;41.924;25.562;2023-05-01T07:26:14;3.72;;;3.53;;
54899;SDS011;40801;41.924;25.562;2023-05-01T07:28:39;5.20;;;4.65;;
54899;SDS011;40801;41.924;25.562;2023-05-01T07:31:07;3.47;;;3.28;;
54899;SDS011;40801;41.924;25.562;2023-05-01T07:33:33;3.58;;;3.28;;
54899;SDS011;40801;41.924;25.562;2023-05-01T07:35:59;3.83;;;3.47;;
54899;SDS011;40801;41.924;25.562;2023-05-01T07:38:24;6.63;;;6.13;;
54899;SDS011;40801;41.924;25.562;2023-05-01T07:40:54;5.13;;;4.72;;
54899;SDS011;40801;41.924;25.562;2023-05-01T07:43:21;3.83;;;3.20;;
54899;SDS011;40801;41.924;25.562;2023-05-01T07:45:53;5.25;;;4.40;;
54899;SDS011;40801;41.924;25.562;2023-05-01T07:48:24;4.32;;;3.92;;
54899;SDS011;40801;41.924;25.562;2023-05-01T07:50:50;3.50;;;3.30;;
54899;SDS011;40801;41.924;25.562;2023-05-01T07:53:15;3.38;;;3.08;;
54899;SDS011;40801;41.924;25.562;2023-05-01T07:55:41;3.95;;;3.58;;
54899;SDS011;40801;41.924;25.562;2023-05-01T07:58:06;3.10;;;2.78;;
54899;SDS011;40801;41.924;25.562;2023-05-01T08:00:32;4.82;;;4.30;;
54899;SDS011;40801;41.924;25.562;2023-05-01T08:02:57;5.60;;;4.10;;
54899;SDS011;40801;41.924;25.562;2023-05-01T08:05:23;4.25;;;3.88;;
54899;SDS011;40801;41.924;25.562;2023-05-01T08:07:48;4.13;;;3.83;;
54899;SDS011;40801;41.924;25.562;2023-05-01T08:10:14;3.47;;;3.13;;
54899;SDS011;40801;41.924;25.562;2023-05-01T08:12:39;6.28;;;4.15;;
54899;SDS011;40801;41.924;25.562;2023-05-01T08:15:05;5.30;;;4.47;;
54899;SDS011;40801;41.924;25.562;2023-05-01T08:17:31;3.45;;;3.15;;
54899;SDS011;40801;41.924;25.562;2023-05-01T08:19:56;4.40;;;4.00;;
54899;SDS011;40801;41.924;25.562;2023-05-01T08:22:22;5.78;;;5.20;;
54899;SDS011;40801;41.924;25.562;2023-05-01T08:24:49;6.30;;;5.28;;
54899;SDS011;40801;41.924;25.562;2023-05-01T08:27:14;5.53;;;5.00;;
54899;SDS011;40801;41.924;25.562;2023-05-01T08:29:40;3.20;;;3.00;;
54899;SDS011;40801;41.924;25.562;2023-05-01T08:32:05;3.58;;;3.28;;
54899;SDS011;40801;41.924;25.562;2023-05-01T08:34:31;4.45;;;3.95;;
54899;SDS011;40801;41.924;25.562;2023-05-01T08:36:57;3.78;;;3.47;;
54899;SDS011;40801;41.924;25.562;2023-05-01T08:39:23;3.90;;;3.60;;
54899;SDS011;40801;41.924;25.562;2023-05-01T08:41:49;6.35;;;5.72;;
54899;SDS011;40801;41.924;25.562;2023-05-01T08:44:14;4.03;;;3.67;;
54899;SDS011;40801;41.924;25.562;2023-05-01T08:49:24;6.75;;;4.53;;
54899;SDS011;40801;41.924;25.562;2023-05-01T08:51:51;12.15;;;10.85;;
54899;SDS011;40801;41.924;25.562;2023-05-01T08:54:20;4.32;;;3.92;;
54899;SDS011;40801;41.924;25.562;2023-05-01T08:56:47;4.30;;;4.07;;
54899;SDS011;40801;41.924;25.562;2023-05-01T08:59:17;4.20;;;3.90;;
54899;SDS011;40801;41.924;25.562;2023-05-01T09:01:44;4.32;;;4.03;;
54899;SDS011;40801;41.924;25.562;2023-05-01T09:04:11;6.35;;;5.18;;
54899;SDS011;40801;41.924;25.562;2023-05-01T09:06:38;4.95;;;4.50;;
54899;SDS011;40801;41.924;25.562;2023-05-01T09:09:04;6.72;;;6.10;;
54899;SDS011;40801;41.924;25.562;2023-05-01T09:11:30;4.85;;;3.78;;
54899;SDS011;40801;41.924;25.562;2023-05-01T09:13:55;4.60;;;3.60;;
54899;SDS011;40801;41.924;25.562;2023-05-01T09:16:21;4.35;;;3.78;;
54899;SDS011;40801;41.924;25.562;2023-05-01T09:18:47;3.90;;;3.60;;
54899;SDS011;40801;41.924;25.562;2023-05-01T09:21:13;4.25;;;3.72;;
54899;SDS011;40801;41.924;25.562;2023-05-01T09:23:38;6.60;;;6.10;;
54899;SDS011;40801;41.924;25.562;2023-05-01T09:26:05;4.25;;;3.78;;
54899;SDS011;40801;41.924;25.562;2023-05-01T09:28:40;3.67;;;3.42;;
54899;SDS011;40801;41.924;25.562;2023-05-01T09:31:19;3.05;;;2.85;;
54899;SDS011;40801;41.924;25.562;2023-05-01T09:33:59;3.20;;;3.00;;
54899;SDS011;40801;41.924;25.562;2023-05-01T09:36:27;6.13;;;5.47;;
54899;SDS011;40801;41.924;25.562;2023-05-01T09:38:55;4.55;;;3.63;;
54899;SDS011;40801;41.924;25.562;2023-05-01T09:41:27;3.42;;;2.95;;
54899;SDS011;40801;41.924;25.562;2023-05-01T09:43:53;3.15;;;2.83;;
54899;SDS011;40801;41.924;25.562;2023-05-01T09:46:20;3.08;;;2.83;;
54899;SDS011;40801;41.924;25.562;2023-05-01T09:51:32;3.72;;;2.90;;
54899;SDS011;40801;41.924;25.562;2023-05-01T09:53:59;3.45;;;2.80;;
54899;SDS011;40801;41.924;25.562;2023-05-01T09:56:26;4.55;;;3.28;;
54899;SDS011;40801;41.924;25.562;2023-05-01T09:58:56;7.05;;;3.40;;
54899;SDS011;40801;41.924;25.562;2023-05-01T10:01:37;2.75;;;2.55;;
54899;SDS011;40801;41.924;25.562;2023-05-01T10:04:06;3.88;;;3.03;;
54899;SDS011;40801;41.924;25.562;2023-05-01T10:06:33;4.18;;;3.20;;
54899;SDS011;40801;41.924;25.562;2023-05-01T10:09:00;2.67;;;2.47;;
54899;SDS011;40801;41.924;25.562;2023-05-01T10:11:26;2.40;;;2.30;;
54899;SDS011;40801;41.924;25.562;2023-05-01T10:14:07;4.25;;;3.67;;
54899;SDS011;40801;41.924;25.562;2023-05-01T10:16:34;3.63;;;3.30;;
54899;SDS011;40801;41.924;25.562;2023-05-01T10:19:02;4.88;;;2.88;;
54899;SDS011;40801;41.924;25.562;2023-05-01T10:21:28;3.45;;;3.10;;
54899;SDS011;40801;41.924;25.562;2023-05-01T10:23:56;2.80;;;2.60;;
54899;SDS011;40801;41.924;25.562;2023-05-01T10:26:21;3.60;;;3.30;;
54899;SDS011;40801;41.924;25.562;2023-05-01T10:28:47;3.10;;;2.90;;
54899;SDS011;40801;41.924;25.562;2023-05-01T10:31:13;3.20;;;2.85;;
54899;SDS011;40801;41.924;25.562;2023-05-01T10:33:41;3.65;;;3.33;;
54899;SDS011;40801;41.924;25.562;2023-05-01T10:36:13;5.38;;;3.72;;
54899;SDS011;40801;41.924;25.562;2023-05-01T10:38:43;4.35;;;3.80;;
54899;SDS011;40801;41.924;25.562;2023-05-01T10:41:12;4.70;;;4.20;;
54899;SDS011;40801;41.924;25.562;2023-05-01T10:43:41;3.80;;;3.50;;
54899;SDS011;40801;41.924;25.562;2023-05-01T10:51:07;3.75;;;3.45;;
54899;SDS011;40801;41.924;25.562;2023-05-01T10:53:43;4.38;;;4.00;;
54899;SDS011;40801;41.924;25.562;2023-05-01T10:56:55;4.35;;;4.00;;
54899;SDS011;40801;41.924;25.562;2023-05-01T10:58:59;4.95;;;4.22;;
54899;SDS011;40801;41.924;25.562;2023-05-01T11:04:02;4.97;;;4.40;;
54899;SDS011;40801;41.924;25.562;2023-05-01T11:06:29;4.50;;;4.10;;
54899;SDS011;40801;41.924;25.562;2023-05-01T11:08:55;4.68;;;4.28;;
54899;SDS011;40801;41.924;25.562;2023-05-01T11:13:58;3.70;;;3.47;;
54899;SDS011;40801;41.924;25.562;2023-05-01T11:19:06;5.05;;;4.30;;
54899;SDS011;40801;41.924;25.562;2023-05-01T11:21:37;5.45;;;3.90;;
54899;SDS011;40801;41.924;25.562;2023-05-01T11:24:07;4.47;;;4.05;;
54899;SDS011;40801;41.924;25.562;2023-05-01T11:26:37;4.30;;;3.90;;
54899;SDS011;40801;41.924;25.562;2023-05-01T11:29:04;4.38;;;3.85;;
54899;SDS011;40801;41.924;25.562;2023-05-01T11:31:30;3.45;;;3.25;;
54899;SDS011;40801;41.924;25.562;2023-05-01T11:33:56;3.63;;;3.33;;
54899;SDS011;40801;41.924;25.562;2023-05-01T11:36:23;4.18;;;3.80;;
54899;SDS011;40801;41.924;25.562;2023-05-01T11:38:49;3.47;;;3.25;;
54899;SDS011;40801;41.924;25.562;2023-05-01T11:41:20;3.67;;;3.42;;
54899;SDS011;40801;41.924;25.562;2023-05-01T11:43:47;3.47;;;3.28;;
54899;SDS011;40801;41.924;25.562;2023-05-01T11:46:27;4.30;;;3.95;;
54899;SDS011;40801;41.924;25.562;2023-05-01T11:48:54;3.88;;;3.58;;
54899;SDS011;40801;41.924;25.562;2023-05-01T11:51:21;3.80;;;3.50;;
54899;SDS011;40801;41.924;25.562;2023-05-01T11:54:06;3.75;;;3.45;;
54899;SDS011;40801;41.924;25.562;2023-05-01T11:56:33;3.83;;;3.50;;
54899;SDS011;40801;41.924;25.562;2023-05-01T11:59:10;4.15;;;3.88;;
54899;SDS011;40801;41.924;25.562;2023-05-01T12:01:39;4.20;;;3.80;;
54899;SDS011;40801;41.924;25.562;2023-05-01T12:04:05;4.07;;;3.77;;
54899;SDS011;40801;41.924;25.562;2023-05-01T12:06:36;3.85;;;3.55;;
54899;SDS011;40801;41.924;25.562;2023-05-01T12:09:05;4.10;;;3.80;;
54899;SDS011;40801;41.924;25.562;2023-05-01T12:11:32;4.20;;;3.90;;
54899;SDS011;40801;41.924;25.562;2023-05-01T12:13:58;5.55;;;4.28;;
54899;SDS011;40801;41.924;25.562;2023-05-01T12:16:26;3.90;;;3.70;;
54899;SDS011;40801;41.924;25.562;2023-05-01T12:18:53;3.67;;;3.38;;
54899;SDS011;40801;41.924;25.562;2023-05-01T12:21:19;3.70;;;3.50;;
54899;SDS011;40801;41.924;25.562;2023-05-01T12:23:45;4.22;;;3.83;;
54899;SDS011;40801;41.924;25.562;2023-05-01T12:26:20;4.88;;;4.57;;
54899;SDS011;40801;41.924;25.562;2023-05-01T12:28:56;4.93;;;3.50;;
54899;SDS011;40801;41.924;25.562;2023-05-01T12:31:24;3.80;;;3.40;;
54899;SDS011;40801;41.924;25.562;2023-05-01T12:33:53;4.00;;;3.60;;
54899;SDS011;40801;41.924;25.562;2023-05-01T12:36:31;4.50;;;3.20;;
54899;SDS011;40801;41.924;25.562;2023-05-01T12:38:58;4.63;;;4.22;;
54899;SDS011;40801;41.924;25.562;2023-05-01T12:41:32;3.42;;;3.13;;
54899;SDS011;40801;41.924;25.562;2023-05-01T12:43:59;3.30;;;3.00;;
54899;SDS011;40801;41.924;25.562;2023-05-01T12:46:25;3.13;;;2.92;;
54899;SDS011;40801;41.924;25.562;2023-05-01T12:48:51;3.67;;;3.35;;
54899;SDS011;40801;41.924;25.562;2023-05-01T12:51:19;4.78;;;3.60;;
54899;SDS011;40801;41.924;25.562;2023-05-01T12:53:45;3.45;;;3.15;;
54899;SDS011;40801;41.924;25.562;2023-05-01T12:56:19;4.00;;;3.65;;
54899;SDS011;40801;41.924;25.562;2023-05-01T12:58:48;3.15;;;2.90;;
54899;SDS011;40801;41.924;25.562;2023-05-01T13:01:27;4.03;;;3.17;;
54899;SDS011;40801;41.924;25.562;2023-05-01T13:03:53;2.80;;;2.60;;
54899;SDS011;40801;41.924;25.562;2023-05-01T13:06:21;3.28;;;2.90;;
54899;SDS011;40801;41.924;25.562;2023-05-01T13:08:59;13.65;;;12.20;;
54899;SDS011;40801;41.924;25.562;2023-05-01T13:11:33;5.85;;;5.45;;
54899;SDS011;40801;41.924;25.562;2023-05-01T13:13:58;10.82;;;9.88;;
54899;SDS011;40801;41.924;25.562;2023-05-01T13:16:31;4.40;;;3.30;;
54899;SDS011;40801;41.924;25.562;2023-05-01T13:18:57;22.77;;;18.40;;
54899;SDS011;40801;41.924;25.562;2023-05-01T13:21:23;33.08;;;29.20;;
54899;SDS011;40801;41.924;25.562;2023-05-01T13:26:32;14.13;;;5.60;;
54899;SDS011;40801;41.924;25.562;2023-05-01T13:29:00;2.90;;;2.70;;
54899;SDS011;40801;41.924;25.562;2023-05-01T13:31:27;4.35;;;3.50;;
54899;SDS011;40801;41.924;25.562;2023-05-01T13:33:54;4.72;;;4.43;;
54899;SDS011;40801;41.924;25.562;2023-05-01T13:36:23;4.40;;;4.00;;
54899;SDS011;40801;41.924;25.562;2023-05-01T13:38:52;3.72;;;3.45;;
54899;SDS011;40801;41.924;25.562;2023-05-01T13:41:20;5.85;;;5.40;;
54899;SDS011;40801;41.924;25.562;2023-05-01T13:43:46;5.53;;;4.45;;
54899;SDS011;40801;41.924;25.562;2023-05-01T13:46:14;4.70;;;4.35;;
54899;SDS011;40801;41.924;25.562;2023-05-01T13:48:41;4.60;;;3.17;;
54899;SDS011;40801;41.924;25.562;2023-05-01T13:51:07;3.17;;;2.97;;
54899;SDS011;40801;41.924;25.562;2023-05-01T13:53:34;3.78;;;3.47;;
54899;SDS011;40801;41.924;25.562;2023-05-01T13:56:00;4.82;;;4.45;;
54899;SDS011;40801;41.924;25.562;2023-05-01T13:58:28;15.07;;;13.55;;
54899;SDS011;40801;41.924;25.562;2023-05-01T14:00:54;4.00;;;3.47;;
54899;SDS011;40801;41.924;25.562;2023-05-01T14:03:19;3.53;;;3.30;;
54899;SDS011;40801;41.924;25.562;2023-05-01T14:05:46;6.82;;;4.55;;
54899;SDS011;40801;41.924;25.562;2023-05-01T14:08:12;4.45;;;4.00;;
54899;SDS011;40801;41.924;25.562;2023-05-01T14:10:38;7.22;;;6.63;;
54899;SDS011;40801;41.924;25.562;2023-05-01T14:13:04;3.92;;;3.72;;
54899;SDS011;40801;41.924;25.562;2023-05-01T14:15:30;4.47;;;3.72;;
54899;SDS011;40801;41.924;25.562;2023-05-01T14:18:02;3.70;;;3.40;;
54899;SDS011;40801;41.924;25.562;2023-05-01T14:20:29;12.18;;;10.95;;
54899;SDS011;40801;41.924;25.562;2023-05-01T14:22:55;8.27;;;7.38;;
54899;SDS011;40801;41.924;25.562;2023-05-01T14:27:54;4.00;;;3.70;;
54899;SDS011;40801;41.924;25.562;2023-05-01T14:30:33;5.78;;;5.30;;
54899;SDS011;40801;41.924;25.562;2023-05-01T14:33:04;9.43;;;8.25;;
54899;SDS011;40801;41.924;25.562;2023-05-01T14:35:34;15.98;;;14.23;;
54899;SDS011;40801;41.924;25.562;2023-05-01T14:38:08;8.07;;;7.45;;
54899;SDS011;40801;41.924;25.562;2023-05-01T14:40:34;4.50;;;4.20;;
54899;SDS011;40801;41.924;25.562;2023-05-01T14:43:00;4.22;;;3.92;;
54899;SDS011;40801;41.924;25.562;2023-05-01T14:45:26;4.78;;;4.47;;
54899;SDS011;40801;41.924;25.562;2023-05-01T14:47:52;9.85;;;8.88;;
54899;SDS011;40801;41.924;25.562;2023-05-01T14:50:21;10.50;;;9.50;;
54899;SDS011;40801;41.924;25.562;2023-05-01T14:52:57;4.55;;;4.15;;
54899;SDS011;40801;41.924;25.562;2023-05-01T14:55:24;4.70;;;4.30;;
54899;SDS011;40801;41.924;25.562;2023-05-01T14:57:55;5.22;;;4.72;;
54899;SDS011;40801;41.924;25.562;2023-05-01T15:00:21;18.38;;;16.55;;
54899;SDS011;40801;41.924;25.562;2023-05-01T15:02:47;4.95;;;4.60;;
54899;SDS011;40801;41.924;25.562;2023-05-01T15:05:13;11.50;;;10.60;;
54899;SDS011;40801;41.924;25.562;2023-05-01T15:07:39;8.65;;;7.85;;
54899;SDS011;40801;41.924;25.562;2023-05-01T15:10:05;3.70;;;3.40;;